sensor_id;sensor_type;location;lat;lon;timestamp;P1;durP1;ratioP1;P2;durP2;ratioP2
17997;SDS011;9124;48.144;17.098;2023-02-22T00:00:35;2.25;;;1.80;;
17997;SDS011;9124;48.144;17.098;2023-02-22T00:04:18;0.98;;;0.98;;
17997;SDS011;9124;48.144;17.098;2023-02-22T00:07:56;1.45;;;1.35;;
17997;SDS011;9124;48.144;17.098;2023-02-22T00:11:32;1.55;;;1.45;;
17997;SDS011;9124;48.144;17.098;2023-02-22T00:15:10;1.48;;;1.35;;
17997;SDS011;9124;48.144;17.098;2023-02-22T00:18:48;3.35;;;1.42;;
17997;SDS011;9124;48.144;17.098;2023-02-22T00:22:25;1.58;;;1.42;;
17997;SDS011;9124;48.144;17.098;2023-02-22T00:26:01;1.75;;;1.60;;
17997;SDS011;9124;48.144;17.098;2023-02-22T00:29:43;3.85;;;1.50;;
17997;SDS011;9124;48.144;17.098;2023-02-22T00:33:21;3.30;;;1.88;;
17997;SDS011;9124;48.144;17.098;2023-02-22T00:36:58;1.63;;;1.50;;
17997;SDS011;9124;48.144;17.098;2023-02-22T00:40:37;1.60;;;1.50;;
17997;SDS011;9124;48.144;17.098;2023-02-22T00:44:15;2.55;;;1.73;;
17997;SDS011;9124;48.144;17.098;2023-02-22T00:47:51;2.55;;;1.48;;
17997;SDS011;9124;48.144;17.098;2023-02-22T00:51:29;2.30;;;1.77;;
17997;SDS011;9124;48.144;17.098;2023-02-22T00:55:06;2.10;;;1.67;;
17997;SDS011;9124;48.144;17.098;2023-02-22T00:58:45;2.03;;;1.27;;
17997;SDS011;9124;48.144;17.098;2023-02-22T01:02:21;1.63;;;1.48;;
17997;SDS011;9124;48.144;17.098;2023-02-22T01:05:59;3.35;;;1.42;;
17997;SDS011;9124;48.144;17.098;2023-02-22T01:09:35;6.25;;;1.85;;
17997;SDS011;9124;48.144;17.098;2023-02-22T01:13:12;1.85;;;1.75;;
17997;SDS011;9124;48.144;17.098;2023-02-22T01:16:49;2.95;;;1.58;;
17997;SDS011;9124;48.144;17.098;2023-02-22T01:20:26;1.45;;;1.35;;
17997;SDS011;9124;48.144;17.098;2023-02-22T01:24:06;1.48;;;1.38;;
17997;SDS011;9124;48.144;17.098;2023-02-22T01:27:42;1.48;;;1.38;;
17997;SDS011;9124;48.144;17.098;2023-02-22T01:31:19;2.13;;;1.52;;
17997;SDS011;9124;48.144;17.098;2023-02-22T01:34:55;2.13;;;2.03;;
17997;SDS011;9124;48.144;17.098;2023-02-22T01:38:32;2.53;;;2.22;;
17997;SDS011;9124;48.144;17.098;2023-02-22T01:42:09;3.03;;;2.22;;
17997;SDS011;9124;48.144;17.098;2023-02-22T01:49:25;2.33;;;1.58;;
17997;SDS011;9124;48.144;17.098;2023-02-22T01:53:08;1.45;;;1.30;;
17997;SDS011;9124;48.144;17.098;2023-02-22T01:56:53;2.17;;;1.80;;
17997;SDS011;9124;48.144;17.098;2023-02-22T02:00:31;1.40;;;1.30;;
17997;SDS011;9124;48.144;17.098;2023-02-22T02:12:11;2.70;;;1.50;;
17997;SDS011;9124;48.144;17.098;2023-02-22T02:15:52;1.90;;;1.33;;
17997;SDS011;9124;48.144;17.098;2023-02-22T02:19:35;1.77;;;1.42;;
17997;SDS011;9124;48.144;17.098;2023-02-22T02:27:25;1.65;;;1.55;;
17997;SDS011;9124;48.144;17.098;2023-02-22T02:39:25;1.50;;;1.40;;
17997;SDS011;9124;48.144;17.098;2023-02-22T02:46:51;6.35;;;1.70;;
17997;SDS011;9124;48.144;17.098;2023-02-22T02:50:43;1.95;;;1.23;;
17997;SDS011;9124;48.144;17.098;2023-02-22T02:54:23;4.30;;;1.88;;
17997;SDS011;9124;48.144;17.098;2023-02-22T02:58:04;2.10;;;1.58;;
17997;SDS011;9124;48.144;17.098;2023-02-22T03:13:51;1.90;;;1.80;;
17997;SDS011;9124;48.144;17.098;2023-02-22T03:18:04;4.35;;;1.77;;
17997;SDS011;9124;48.144;17.098;2023-02-22T03:25:32;1.75;;;1.65;;
17997;SDS011;9124;48.144;17.098;2023-02-22T03:29:16;2.08;;;1.70;;
17997;SDS011;9124;48.144;17.098;2023-02-22T03:32:56;1.80;;;1.70;;
17997;SDS011;9124;48.144;17.098;2023-02-22T03:36:46;2.05;;;1.60;;
17997;SDS011;9124;48.144;17.098;2023-02-22T03:40:29;1.60;;;1.50;;
17997;SDS011;9124;48.144;17.098;2023-02-22T03:44:10;2.10;;;1.90;;
17997;SDS011;9124;48.144;17.098;2023-02-22T03:47:56;1.80;;;1.58;;
17997;SDS011;9124;48.144;17.098;2023-02-22T03:51:40;1.83;;;1.73;;
17997;SDS011;9124;48.144;17.098;2023-02-22T03:55:17;1.70;;;1.60;;
17997;SDS011;9124;48.144;17.098;2023-02-22T03:58:54;1.30;;;1.20;;
17997;SDS011;9124;48.144;17.098;2023-02-22T04:02:30;1.70;;;1.60;;
17997;SDS011;9124;48.144;17.098;2023-02-22T04:06:08;2.33;;;1.83;;
17997;SDS011;9124;48.144;17.098;2023-02-22T04:09:44;1.67;;;1.58;;
17997;SDS011;9124;48.144;17.098;2023-02-22T04:13:22;2.40;;;1.95;;
17997;SDS011;9124;48.144;17.098;2023-02-22T04:17:01;1.83;;;1.25;;
17997;SDS011;9124;48.144;17.098;2023-02-22T04:20:37;1.58;;;1.48;;
17997;SDS011;9124;48.144;17.098;2023-02-22T04:24:20;1.45;;;1.35;;
17997;SDS011;9124;48.144;17.098;2023-02-22T04:27:59;1.63;;;1.52;;
17997;SDS011;9124;48.144;17.098;2023-02-22T04:31:47;1.70;;;1.60;;
17997;SDS011;9124;48.144;17.098;2023-02-22T04:35:24;2.17;;;1.98;;
17997;SDS011;9124;48.144;17.098;2023-02-22T04:39:01;3.28;;;2.17;;
17997;SDS011;9124;48.144;17.098;2023-02-22T04:42:39;1.73;;;1.60;;
17997;SDS011;9124;48.144;17.098;2023-02-22T04:46:16;5.07;;;1.80;;
17997;SDS011;9124;48.144;17.098;2023-02-22T04:49:52;2.92;;;1.85;;
17997;SDS011;9124;48.144;17.098;2023-02-22T04:53:28;2.00;;;1.85;;
17997;SDS011;9124;48.144;17.098;2023-02-22T04:57:05;1.88;;;1.75;;
17997;SDS011;9124;48.144;17.098;2023-02-22T05:00:42;1.60;;;1.50;;
17997;SDS011;9124;48.144;17.098;2023-02-22T05:04:19;2.30;;;1.95;;
17997;SDS011;9124;48.144;17.098;2023-02-22T05:07:56;2.42;;;1.65;;
17997;SDS011;9124;48.144;17.098;2023-02-22T05:11:32;1.67;;;1.58;;
17997;SDS011;9124;48.144;17.098;2023-02-22T05:15:09;2.22;;;1.80;;
17997;SDS011;9124;48.144;17.098;2023-02-22T05:18:45;1.90;;;1.80;;
17997;SDS011;9124;48.144;17.098;2023-02-22T05:22:22;1.80;;;1.70;;
17997;SDS011;9124;48.144;17.098;2023-02-22T05:25:59;2.08;;;1.70;;
17997;SDS011;9124;48.144;17.098;2023-02-22T05:29:36;1.88;;;1.67;;
17997;SDS011;9124;48.144;17.098;2023-02-22T05:33:13;2.08;;;1.95;;
17997;SDS011;9124;48.144;17.098;2023-02-22T05:36:49;1.85;;;1.75;;
17997;SDS011;9124;48.144;17.098;2023-02-22T05:40:26;3.30;;;1.92;;
17997;SDS011;9124;48.144;17.098;2023-02-22T05:44:03;1.65;;;1.55;;
17997;SDS011;9124;48.144;17.098;2023-02-22T05:47:40;2.13;;;1.98;;
17997;SDS011;9124;48.144;17.098;2023-02-22T05:51:16;3.25;;;2.10;;
17997;SDS011;9124;48.144;17.098;2023-02-22T05:54:54;1.92;;;1.83;;
17997;SDS011;9124;48.144;17.098;2023-02-22T05:58:31;2.17;;;1.98;;
17997;SDS011;9124;48.144;17.098;2023-02-22T06:02:07;2.30;;;2.10;;
17997;SDS011;9124;48.144;17.098;2023-02-22T06:05:44;2.25;;;1.95;;
17997;SDS011;9124;48.144;17.098;2023-02-22T06:09:20;2.50;;;2.20;;
17997;SDS011;9124;48.144;17.098;2023-02-22T06:12:57;2.30;;;2.10;;
17997;SDS011;9124;48.144;17.098;2023-02-22T06:16:34;1.95;;;1.75;;
17997;SDS011;9124;48.144;17.098;2023-02-22T06:20:12;2.10;;;1.92;;
17997;SDS011;9124;48.144;17.098;2023-02-22T06:23:50;2.13;;;1.92;;
17997;SDS011;9124;48.144;17.098;2023-02-22T06:27:29;3.17;;;2.17;;
17997;SDS011;9124;48.144;17.098;2023-02-22T06:31:06;2.00;;;1.80;;
17997;SDS011;9124;48.144;17.098;2023-02-22T06:34:43;5.80;;;2.30;;
17997;SDS011;9124;48.144;17.098;2023-02-22T06:38:20;2.17;;;1.92;;
17997;SDS011;9124;48.144;17.098;2023-02-22T06:41:58;2.92;;;1.98;;
17997;SDS011;9124;48.144;17.098;2023-02-22T06:45:34;3.60;;;2.25;;
17997;SDS011;9124;48.144;17.098;2023-02-22T06:49:12;2.75;;;2.00;;
17997;SDS011;9124;48.144;17.098;2023-02-22T06:52:49;3.95;;;2.10;;
17997;SDS011;9124;48.144;17.098;2023-02-22T06:56:26;4.85;;;2.25;;
17997;SDS011;9124;48.144;17.098;2023-02-22T07:00:02;2.85;;;2.45;;
17997;SDS011;9124;48.144;17.098;2023-02-22T07:03:39;2.75;;;2.05;;
17997;SDS011;9124;48.144;17.098;2023-02-22T07:07:17;2.17;;;1.98;;
17997;SDS011;9124;48.144;17.098;2023-02-22T07:10:56;2.15;;;1.70;;
17997;SDS011;9124;48.144;17.098;2023-02-22T07:14:33;2.78;;;1.90;;
17997;SDS011;9124;48.144;17.098;2023-02-22T07:18:09;4.72;;;2.08;;
17997;SDS011;9124;48.144;17.098;2023-02-22T07:21:46;2.95;;;2.40;;
17997;SDS011;9124;48.144;17.098;2023-02-22T07:25:23;2.78;;;1.67;;
17997;SDS011;9124;48.144;17.098;2023-02-22T07:28:59;2.08;;;1.77;;
17997;SDS011;9124;48.144;17.098;2023-02-22T07:32:35;2.67;;;2.03;;
17997;SDS011;9124;48.144;17.098;2023-02-22T07:36:12;2.55;;;1.90;;
17997;SDS011;9124;48.144;17.098;2023-02-22T07:39:52;2.80;;;2.03;;
17997;SDS011;9124;48.144;17.098;2023-02-22T07:43:29;4.05;;;2.40;;
17997;SDS011;9124;48.144;17.098;2023-02-22T07:47:07;1.90;;;1.80;;
17997;SDS011;9124;48.144;17.098;2023-02-22T07:50:47;3.78;;;1.90;;
17997;SDS011;9124;48.144;17.098;2023-02-22T07:54:24;4.38;;;1.88;;
17997;SDS011;9124;48.144;17.098;2023-02-22T07:58:01;1.98;;;1.85;;
17997;SDS011;9124;48.144;17.098;2023-02-22T08:01:40;4.75;;;2.10;;
17997;SDS011;9124;48.144;17.098;2023-02-22T08:05:17;1.77;;;1.52;;
17997;SDS011;9124;48.144;17.098;2023-02-22T08:08:54;3.35;;;1.90;;
17997;SDS011;9124;48.144;17.098;2023-02-22T08:12:30;2.40;;;2.00;;
17997;SDS011;9124;48.144;17.098;2023-02-22T08:16:10;2.50;;;2.20;;
17997;SDS011;9124;48.144;17.098;2023-02-22T08:19:47;2.80;;;1.73;;
17997;SDS011;9124;48.144;17.098;2023-02-22T08:23:24;1.80;;;1.70;;
17997;SDS011;9124;48.144;17.098;2023-02-22T08:27:01;2.58;;;1.92;;
17997;SDS011;9124;48.144;17.098;2023-02-22T08:30:38;3.33;;;2.00;;
17997;SDS011;9124;48.144;17.098;2023-02-22T08:34:17;1.70;;;1.60;;
17997;SDS011;9124;48.144;17.098;2023-02-22T08:37:55;3.05;;;1.95;;
17997;SDS011;9124;48.144;17.098;2023-02-22T08:41:33;1.95;;;1.85;;
17997;SDS011;9124;48.144;17.098;2023-02-22T08:45:10;2.60;;;1.85;;
17997;SDS011;9124;48.144;17.098;2023-02-22T08:48:51;1.65;;;1.55;;
17997;SDS011;9124;48.144;17.098;2023-02-22T08:52:28;2.67;;;2.47;;
17997;SDS011;9124;48.144;17.098;2023-02-22T08:56:04;2.30;;;2.08;;
17997;SDS011;9124;48.144;17.098;2023-02-22T08:59:41;4.70;;;1.92;;
17997;SDS011;9124;48.144;17.098;2023-02-22T09:03:17;4.28;;;2.30;;
17997;SDS011;9124;48.144;17.098;2023-02-22T09:06:54;3.10;;;2.47;;
17997;SDS011;9124;48.144;17.098;2023-02-22T09:10:31;2.70;;;2.50;;
17997;SDS011;9124;48.144;17.098;2023-02-22T09:14:09;2.92;;;2.38;;
17997;SDS011;9124;48.144;17.098;2023-02-22T09:17:45;3.30;;;2.80;;
17997;SDS011;9124;48.144;17.098;2023-02-22T09:21:22;2.42;;;2.28;;
17997;SDS011;9124;48.144;17.098;2023-02-22T09:24:58;3.17;;;2.88;;
17997;SDS011;9124;48.144;17.098;2023-02-22T09:28:35;9.57;;;3.08;;
17997;SDS011;9124;48.144;17.098;2023-02-22T09:32:12;3.65;;;2.55;;
17997;SDS011;9124;48.144;17.098;2023-02-22T09:35:49;3.10;;;2.80;;
17997;SDS011;9124;48.144;17.098;2023-02-22T09:39:25;3.38;;;3.08;;
17997;SDS011;9124;48.144;17.098;2023-02-22T09:43:12;3.28;;;2.97;;
17997;SDS011;9124;48.144;17.098;2023-02-22T09:47:33;3.03;;;2.50;;
17997;SDS011;9124;48.144;17.098;2023-02-22T09:51:16;2.08;;;1.98;;
17997;SDS011;9124;48.144;17.098;2023-02-22T09:55:14;2.92;;;2.72;;
17997;SDS011;9124;48.144;17.098;2023-02-22T09:59:26;6.55;;;3.30;;
17997;SDS011;9124;48.144;17.098;2023-02-22T10:06:47;1.38;;;1.27;;
17997;SDS011;9124;48.144;17.098;2023-02-22T10:10:29;1.13;;;1.02;;
17997;SDS011;9124;48.144;17.098;2023-02-22T10:25:33;1.88;;;1.77;;
17997;SDS011;9124;48.144;17.098;2023-02-22T10:37:02;3.75;;;3.55;;
17997;SDS011;9124;48.144;17.098;2023-02-22T10:48:55;3.88;;;3.58;;
17997;SDS011;9124;48.144;17.098;2023-02-22T10:52:37;3.97;;;3.63;;
17997;SDS011;9124;48.144;17.098;2023-02-22T10:56:15;4.20;;;3.90;;
17997;SDS011;9124;48.144;17.098;2023-02-22T11:04:03;3.10;;;2.90;;
17997;SDS011;9124;48.144;17.098;2023-02-22T11:07:40;3.03;;;2.80;;
17997;SDS011;9124;48.144;17.098;2023-02-22T11:11:23;3.22;;;3.03;;
17997;SDS011;9124;48.144;17.098;2023-02-22T11:19:00;3.55;;;3.28;;
17997;SDS011;9124;48.144;17.098;2023-02-22T11:22:42;3.92;;;3.67;;
17997;SDS011;9124;48.144;17.098;2023-02-22T11:26:18;3.40;;;3.20;;
17997;SDS011;9124;48.144;17.098;2023-02-22T11:29:56;3.30;;;3.10;;
17997;SDS011;9124;48.144;17.098;2023-02-22T11:33:56;4.32;;;3.35;;
17997;SDS011;9124;48.144;17.098;2023-02-22T11:37:35;2.97;;;2.78;;
17997;SDS011;9124;48.144;17.098;2023-02-22T11:41:13;2.97;;;2.78;;
17997;SDS011;9124;48.144;17.098;2023-02-22T11:49:05;4.32;;;3.47;;
17997;SDS011;9124;48.144;17.098;2023-02-22T11:52:45;6.30;;;2.88;;
17997;SDS011;9124;48.144;17.098;2023-02-22T11:56:26;2.60;;;2.40;;
17997;SDS011;9124;48.144;17.098;2023-02-22T12:24:27;3.20;;;2.90;;
17997;SDS011;9124;48.144;17.098;2023-02-22T12:32:07;4.47;;;3.50;;
17997;SDS011;9124;48.144;17.098;2023-02-22T12:35:57;4.78;;;3.22;;
17997;SDS011;9124;48.144;17.098;2023-02-22T12:43:50;3.10;;;2.90;;
17997;SDS011;9124;48.144;17.098;2023-02-22T12:47:45;2.72;;;2.53;;
17997;SDS011;9124;48.144;17.098;2023-02-22T12:51:48;5.35;;;3.00;;
17997;SDS011;9124;48.144;17.098;2023-02-22T12:55:46;2.92;;;2.72;;
17997;SDS011;9124;48.144;17.098;2023-02-22T12:59:35;2.53;;;2.33;;
17997;SDS011;9124;48.144;17.098;2023-02-22T13:03:32;4.82;;;2.72;;
17997;SDS011;9124;48.144;17.098;2023-02-22T13:14:54;2.92;;;2.72;;
17997;SDS011;9124;48.144;17.098;2023-02-22T13:42:40;4.07;;;3.78;;
17997;SDS011;9124;48.144;17.098;2023-02-22T13:46:30;3.22;;;2.90;;
17997;SDS011;9124;48.144;17.098;2023-02-22T13:54:41;2.70;;;2.50;;
17997;SDS011;9124;48.144;17.098;2023-02-22T13:58:21;3.38;;;3.08;;
17997;SDS011;9124;48.144;17.098;2023-02-22T14:01:58;3.10;;;2.80;;
17997;SDS011;9124;48.144;17.098;2023-02-22T14:13:25;2.80;;;2.60;;
17997;SDS011;9124;48.144;17.098;2023-02-22T14:21:15;3.88;;;2.75;;
17997;SDS011;9124;48.144;17.098;2023-02-22T14:24:55;3.08;;;2.67;;
17997;SDS011;9124;48.144;17.098;2023-02-22T14:32:15;2.97;;;2.67;;
17997;SDS011;9124;48.144;17.098;2023-02-22T14:35:52;2.97;;;2.40;;
17997;SDS011;9124;48.144;17.098;2023-02-22T14:39:47;2.78;;;2.58;;
17997;SDS011;9124;48.144;17.098;2023-02-22T14:44:01;2.10;;;2.00;;
17997;SDS011;9124;48.144;17.098;2023-02-22T14:47:44;2.38;;;2.17;;
17997;SDS011;9124;48.144;17.098;2023-02-22T14:51:42;3.72;;;2.47;;
17997;SDS011;9124;48.144;17.098;2023-02-22T14:55:33;4.78;;;2.08;;
17997;SDS011;9124;48.144;17.098;2023-02-22T14:59:27;2.58;;;2.38;;
17997;SDS011;9124;48.144;17.098;2023-02-22T15:06:53;2.63;;;2.45;;
17997;SDS011;9124;48.144;17.098;2023-02-22T15:10:44;2.40;;;2.30;;
17997;SDS011;9124;48.144;17.098;2023-02-22T15:14:24;2.70;;;2.50;;
17997;SDS011;9124;48.144;17.098;2023-02-22T15:18:01;2.80;;;2.65;;
17997;SDS011;9124;48.144;17.098;2023-02-22T15:21:44;3.80;;;3.25;;
17997;SDS011;9124;48.144;17.098;2023-02-22T15:25:22;4.25;;;3.85;;
17997;SDS011;9124;48.144;17.098;2023-02-22T15:29:25;3.42;;;3.22;;
17997;SDS011;9124;48.144;17.098;2023-02-22T15:33:12;3.65;;;3.35;;
17997;SDS011;9124;48.144;17.098;2023-02-22T15:37:13;3.72;;;3.42;;
17997;SDS011;9124;48.144;17.098;2023-02-22T15:41:03;3.17;;;2.97;;
17997;SDS011;9124;48.144;17.098;2023-02-22T15:44:45;4.03;;;3.63;;
17997;SDS011;9124;48.144;17.098;2023-02-22T15:48:23;5.50;;;3.15;;
17997;SDS011;9124;48.144;17.098;2023-02-22T15:52:07;3.65;;;3.35;;
17997;SDS011;9124;48.144;17.098;2023-02-22T15:55:57;4.13;;;3.67;;
17997;SDS011;9124;48.144;17.098;2023-02-22T15:59:47;4.03;;;3.72;;
17997;SDS011;9124;48.144;17.098;2023-02-22T16:03:36;3.15;;;2.92;;
17997;SDS011;9124;48.144;17.098;2023-02-22T16:07:21;5.25;;;2.92;;
17997;SDS011;9124;48.144;17.098;2023-02-22T16:11:00;3.97;;;2.92;;
17997;SDS011;9124;48.144;17.098;2023-02-22T16:14:41;3.65;;;3.33;;
17997;SDS011;9124;48.144;17.098;2023-02-22T16:18:28;4.13;;;2.97;;
17997;SDS011;9124;48.144;17.098;2023-02-22T16:22:24;4.03;;;3.63;;
17997;SDS011;9124;48.144;17.098;2023-02-22T16:26:05;3.20;;;2.90;;
17997;SDS011;9124;48.144;17.098;2023-02-22T16:30:06;4.07;;;3.67;;
17997;SDS011;9124;48.144;17.098;2023-02-22T16:33:56;5.05;;;3.25;;
17997;SDS011;9124;48.144;17.098;2023-02-22T16:37:33;4.63;;;4.20;;
17997;SDS011;9124;48.144;17.098;2023-02-22T16:41:09;4.65;;;3.70;;
17997;SDS011;9124;48.144;17.098;2023-02-22T16:44:46;4.20;;;3.80;;
17997;SDS011;9124;48.144;17.098;2023-02-22T16:48:25;4.50;;;4.10;;
17997;SDS011;9124;48.144;17.098;2023-02-22T16:52:07;5.05;;;3.95;;
17997;SDS011;9124;48.144;17.098;2023-02-22T16:55:44;6.45;;;5.00;;
17997;SDS011;9124;48.144;17.098;2023-02-22T16:59:22;7.63;;;6.25;;
17997;SDS011;9124;48.144;17.098;2023-02-22T17:03:01;12.20;;;6.50;;
17997;SDS011;9124;48.144;17.098;2023-02-22T17:06:39;9.68;;;7.32;;
17997;SDS011;9124;48.144;17.098;2023-02-22T17:10:16;10.60;;;7.35;;
17997;SDS011;9124;48.144;17.098;2023-02-22T17:13:52;10.38;;;7.70;;
17997;SDS011;9124;48.144;17.098;2023-02-22T17:17:29;11.05;;;7.72;;
17997;SDS011;9124;48.144;17.098;2023-02-22T17:21:08;10.07;;;7.28;;
17997;SDS011;9124;48.144;17.098;2023-02-22T17:24:45;11.13;;;7.72;;
17997;SDS011;9124;48.144;17.098;2023-02-22T17:28:25;12.50;;;7.13;;
17997;SDS011;9124;48.144;17.098;2023-02-22T17:32:05;11.02;;;7.68;;
17997;SDS011;9124;48.144;17.098;2023-02-22T17:35:43;13.68;;;7.88;;
17997;SDS011;9124;48.144;17.098;2023-02-22T17:39:21;10.15;;;6.82;;
17997;SDS011;9124;48.144;17.098;2023-02-22T17:42:58;11.82;;;7.70;;
17997;SDS011;9124;48.144;17.098;2023-02-22T17:46:35;11.00;;;8.00;;
17997;SDS011;9124;48.144;17.098;2023-02-22T17:50:15;11.48;;;7.38;;
17997;SDS011;9124;48.144;17.098;2023-02-22T17:53:52;8.75;;;6.85;;
17997;SDS011;9124;48.144;17.098;2023-02-22T17:57:28;10.48;;;6.97;;
17997;SDS011;9124;48.144;17.098;2023-02-22T18:01:04;15.93;;;6.82;;
17997;SDS011;9124;48.144;17.098;2023-02-22T18:04:41;11.32;;;8.57;;
17997;SDS011;9124;48.144;17.098;2023-02-22T18:08:18;8.15;;;6.88;;
17997;SDS011;9124;48.144;17.098;2023-02-22T18:11:54;10.65;;;6.80;;
17997;SDS011;9124;48.144;17.098;2023-02-22T18:15:30;11.40;;;7.28;;
17997;SDS011;9124;48.144;17.098;2023-02-22T18:19:15;11.88;;;8.77;;
17997;SDS011;9124;48.144;17.098;2023-02-22T18:22:53;9.73;;;6.88;;
17997;SDS011;9124;48.144;17.098;2023-02-22T18:26:30;14.38;;;7.60;;
17997;SDS011;9124;48.144;17.098;2023-02-22T18:30:06;12.40;;;8.30;;
17997;SDS011;9124;48.144;17.098;2023-02-22T18:33:43;9.10;;;7.40;;
17997;SDS011;9124;48.144;17.098;2023-02-22T18:37:21;11.00;;;8.43;;
17997;SDS011;9124;48.144;17.098;2023-02-22T18:40:58;12.30;;;8.75;;
17997;SDS011;9124;48.144;17.098;2023-02-22T18:44:36;8.75;;;7.07;;
17997;SDS011;9124;48.144;17.098;2023-02-22T18:48:12;9.52;;;7.60;;
17997;SDS011;9124;48.144;17.098;2023-02-22T18:51:49;11.45;;;7.90;;
17997;SDS011;9124;48.144;17.098;2023-02-22T18:55:25;10.05;;;7.40;;
17997;SDS011;9124;48.144;17.098;2023-02-22T18:59:02;9.07;;;6.80;;
17997;SDS011;9124;48.144;17.098;2023-02-22T19:02:41;8.38;;;7.43;;
17997;SDS011;9124;48.144;17.098;2023-02-22T19:06:18;8.35;;;6.50;;
17997;SDS011;9124;48.144;17.098;2023-02-22T19:09:57;10.73;;;6.63;;
17997;SDS011;9124;48.144;17.098;2023-02-22T19:13:34;12.32;;;6.95;;
17997;SDS011;9124;48.144;17.098;2023-02-22T19:17:11;17.10;;;7.60;;
17997;SDS011;9124;48.144;17.098;2023-02-22T19:20:54;8.55;;;6.93;;
17997;SDS011;9124;48.144;17.098;2023-02-22T19:24:32;7.70;;;6.68;;
17997;SDS011;9124;48.144;17.098;2023-02-22T19:28:09;10.02;;;6.85;;
17997;SDS011;9124;48.144;17.098;2023-02-22T19:31:45;7.07;;;6.07;;
17997;SDS011;9124;48.144;17.098;2023-02-22T19:35:26;7.50;;;6.20;;
17997;SDS011;9124;48.144;17.098;2023-02-22T19:39:02;7.68;;;5.88;;
17997;SDS011;9124;48.144;17.098;2023-02-22T19:42:39;7.78;;;5.70;;
17997;SDS011;9124;48.144;17.098;2023-02-22T19:46:15;9.35;;;5.80;;
17997;SDS011;9124;48.144;17.098;2023-02-22T19:49:56;6.82;;;5.50;;
17997;SDS011;9124;48.144;17.098;2023-02-22T19:53:32;6.63;;;5.05;;
17997;SDS011;9124;48.144;17.098;2023-02-22T19:57:09;11.20;;;5.88;;
17997;SDS011;9124;48.144;17.098;2023-02-22T20:00:46;10.55;;;7.47;;
17997;SDS011;9124;48.144;17.098;2023-02-22T20:04:22;10.40;;;6.93;;
17997;SDS011;9124;48.144;17.098;2023-02-22T20:08:00;9.43;;;6.65;;
17997;SDS011;9124;48.144;17.098;2023-02-22T20:11:36;12.60;;;7.43;;
17997;SDS011;9124;48.144;17.098;2023-02-22T20:15:13;10.65;;;7.32;;
17997;SDS011;9124;48.144;17.098;2023-02-22T20:18:49;10.18;;;7.40;;
17997;SDS011;9124;48.144;17.098;2023-02-22T20:22:26;10.55;;;7.90;;
17997;SDS011;9124;48.144;17.098;2023-02-22T20:26:02;12.63;;;7.80;;
17997;SDS011;9124;48.144;17.098;2023-02-22T20:29:39;8.70;;;6.32;;
17997;SDS011;9124;48.144;17.098;2023-02-22T20:33:15;8.48;;;6.90;;
17997;SDS011;9124;48.144;17.098;2023-02-22T20:36:52;8.68;;;6.90;;
17997;SDS011;9124;48.144;17.098;2023-02-22T20:40:28;10.27;;;7.18;;
17997;SDS011;9124;48.144;17.098;2023-02-22T20:44:05;9.65;;;6.68;;
17997;SDS011;9124;48.144;17.098;2023-02-22T20:47:42;10.30;;;7.25;;
17997;SDS011;9124;48.144;17.098;2023-02-22T20:51:18;10.77;;;6.53;;
17997;SDS011;9124;48.144;17.098;2023-02-22T20:54:55;8.43;;;6.40;;
17997;SDS011;9124;48.144;17.098;2023-02-22T20:58:32;7.07;;;5.50;;
17997;SDS011;9124;48.144;17.098;2023-02-22T21:02:08;10.43;;;6.70;;
17997;SDS011;9124;48.144;17.098;2023-02-22T21:05:45;6.63;;;5.93;;
17997;SDS011;9124;48.144;17.098;2023-02-22T21:09:22;6.20;;;5.60;;
17997;SDS011;9124;48.144;17.098;2023-02-22T21:12:58;8.32;;;6.38;;
17997;SDS011;9124;48.144;17.098;2023-02-22T21:16:35;8.02;;;6.40;;
17997;SDS011;9124;48.144;17.098;2023-02-22T21:20:12;9.02;;;7.07;;
17997;SDS011;9124;48.144;17.098;2023-02-22T21:23:50;10.52;;;6.40;;
17997;SDS011;9124;48.144;17.098;2023-02-22T21:27:27;9.25;;;6.35;;
17997;SDS011;9124;48.144;17.098;2023-02-22T21:31:04;9.93;;;6.82;;
17997;SDS011;9124;48.144;17.098;2023-02-22T21:34:43;7.35;;;6.18;;
17997;SDS011;9124;48.144;17.098;2023-02-22T21:38:19;13.75;;;7.13;;
17997;SDS011;9124;48.144;17.098;2023-02-22T21:41:55;7.63;;;6.45;;
17997;SDS011;9124;48.144;17.098;2023-02-22T21:45:35;12.65;;;7.50;;
17997;SDS011;9124;48.144;17.098;2023-02-22T21:49:13;15.25;;;8.10;;
17997;SDS011;9124;48.144;17.098;2023-02-22T21:52:49;17.30;;;8.18;;
17997;SDS011;9124;48.144;17.098;2023-02-22T21:56:27;10.90;;;8.23;;
17997;SDS011;9124;48.144;17.098;2023-02-22T22:00:07;13.73;;;8.52;;
17997;SDS011;9124;48.144;17.098;2023-02-22T22:04:03;18.00;;;8.07;;
17997;SDS011;9124;48.144;17.098;2023-02-22T22:07:40;11.77;;;8.00;;
17997;SDS011;9124;48.144;17.098;2023-02-22T22:11:19;9.50;;;7.40;;
17997;SDS011;9124;48.144;17.098;2023-02-22T22:14:55;15.32;;;7.47;;
17997;SDS011;9124;48.144;17.098;2023-02-22T22:18:32;14.45;;;8.52;;
17997;SDS011;9124;48.144;17.098;2023-02-22T22:22:12;12.15;;;7.78;;
17997;SDS011;9124;48.144;17.098;2023-02-22T22:25:49;10.25;;;6.30;;
17997;SDS011;9124;48.144;17.098;2023-02-22T22:29:25;8.30;;;6.65;;
17997;SDS011;9124;48.144;17.098;2023-02-22T22:33:03;12.23;;;6.65;;
17997;SDS011;9124;48.144;17.098;2023-02-22T22:36:46;14.65;;;7.57;;
17997;SDS011;9124;48.144;17.098;2023-02-22T22:40:22;9.15;;;7.10;;
17997;SDS011;9124;48.144;17.098;2023-02-22T22:43:58;14.10;;;8.25;;
17997;SDS011;9124;48.144;17.098;2023-02-22T22:47:34;12.77;;;8.38;;
17997;SDS011;9124;48.144;17.098;2023-02-22T22:51:12;13.20;;;8.55;;
17997;SDS011;9124;48.144;17.098;2023-02-22T22:54:52;12.90;;;8.75;;
17997;SDS011;9124;48.144;17.098;2023-02-22T22:58:33;13.90;;;8.60;;
17997;SDS011;9124;48.144;17.098;2023-02-22T23:02:09;12.77;;;8.25;;
17997;SDS011;9124;48.144;17.098;2023-02-22T23:05:46;13.05;;;7.53;;
17997;SDS011;9124;48.144;17.098;2023-02-22T23:09:24;15.70;;;9.23;;
17997;SDS011;9124;48.144;17.098;2023-02-22T23:13:05;12.57;;;8.45;;
17997;SDS011;9124;48.144;17.098;2023-02-22T23:16:47;15.95;;;8.75;;
17997;SDS011;9124;48.144;17.098;2023-02-22T23:20:26;16.50;;;8.38;;
17997;SDS011;9124;48.144;17.098;2023-02-22T23:24:02;18.38;;;8.52;;
17997;SDS011;9124;48.144;17.098;2023-02-22T23:27:42;14.07;;;8.70;;
17997;SDS011;9124;48.144;17.098;2023-02-22T23:31:18;14.15;;;9.20;;
17997;SDS011;9124;48.144;17.098;2023-02-22T23:34:54;16.33;;;8.95;;
17997;SDS011;9124;48.144;17.098;2023-02-22T23:38:31;16.40;;;9.63;;
17997;SDS011;9124;48.144;17.098;2023-02-22T23:42:09;18.30;;;9.40;;
17997;SDS011;9124;48.144;17.098;2023-02-22T23:45:45;16.48;;;9.13;;
17997;SDS011;9124;48.144;17.098;2023-02-22T23:49:24;18.17;;;9.65;;
17997;SDS011;9124;48.144;17.098;2023-02-22T23:53:01;17.92;;;9.02;;
17997;SDS011;9124;48.144;17.098;2023-02-22T23:56:38;12.48;;;8.20;;
